Airfield :
LOGIN :

Register | Disclaimer

   EN    FR    IT 

 










Legend :    VFR   Marginal VFR   IFR   Intensive IFR   Very Intensive IFR
Visi :
Ceiling :
>= 8 km
>= 3000ft
5 to 8 km
1000 to 3000 ft
1500m to 5 km
500 to 1000 ft
800 to 1500m
200 to 500 ft
< 800m
< 200 ft
Symbols :   Thunderstorms  Fog  Heavy snow  Heavy precipitations  Wind > 20 kt
SIGMETs :     Misc.  Thunderstorms  Icing  Turbulence  Mountain Waves  Volcanic Ashes






- Airport Elevation : 295 ft
- IATA code : ORN


DAOO - Es senia - Oran

CURRENT METAR :
  • 071000Z 03008KT 9999 SCT026 26/14 Q1018

EXPIRED METARs :
  • 070900Z 03005KT 9999 BKN026 23/14 Q1019
  • 070830Z 02005KT 9999 SCT026 22/14 Q1019
  • 070800Z 02004KT 9999 SCT026 22/14 Q1019
  • 070730Z 05006KT 9999 SCT026 20/14 Q1019

TAF TAF DAOO
Valid from the 07 at 06:00 until the 08 at 06:00 UTC


070500Z 0706/0806 06007KT 6000 FEW010 SCT026
PROB40
TEMPO 0706/0710 FEW030CB
BECMG 0712/0715 34011KT FEW026
BECMG 0718/0722 06010KT



MET'MAP, your aeronautical weather chart ! - Copyright ORBIFLY December 2007 - Disclaimer

ORBIFLY MET'MAP TEAM :

Programming & Development : Alexandra Zaïnal
Original concept : Baudouin d'Aumeries
Technical & hardware support : Manuel Goepfert
Assistance : Marc-Olivier Méhu




SOURCES & CREDITS :

   NOAA